createdAt,value
2018-10-19T06:39:31.308Z,10.30
2018-10-19T06:41:59.534Z,10.30
2018-10-19T06:44:27.778Z,10.30
2018-10-19T06:46:56.072Z,10.30
2018-10-19T06:49:24.276Z,10.30
2018-10-19T06:51:52.504Z,10.30
2018-10-19T06:54:20.756Z,10.30
2018-10-19T06:56:48.984Z,10.40
2018-10-19T06:59:17.280Z,10.40
2018-10-19T07:01:46.288Z,10.30
2018-10-19T07:04:14.516Z,10.40
2018-10-19T07:06:42.791Z,10.40
2018-10-19T07:09:11.008Z,10.40
2018-10-19T07:11:39.269Z,10.40
2018-10-19T07:14:07.545Z,10.40
2018-10-19T07:16:35.772Z,10.50
2018-10-19T07:19:04.052Z,10.50
2018-10-19T07:21:32.298Z,10.60
2018-10-19T07:24:00.512Z,10.60
2018-10-19T07:26:28.779Z,10.60
2018-10-19T07:28:57.050Z,10.70
2018-10-19T07:31:25.292Z,10.70
2018-10-19T07:33:54.359Z,10.80
2018-10-19T07:36:22.895Z,10.90
2018-10-19T07:38:51.095Z,10.90
2018-10-19T07:41:19.336Z,11.00
2018-10-19T07:43:47.556Z,11.00
2018-10-19T07:46:15.823Z,11.00
2018-10-19T07:48:44.060Z,11.00
2018-10-19T07:51:12.320Z,11.10
2018-10-19T07:53:40.548Z,11.20
2018-10-19T07:56:08.870Z,11.30
2018-10-19T07:58:37.079Z,11.30
2018-10-19T08:01:05.374Z,11.40
2018-10-19T08:03:33.576Z,11.30
2018-10-19T08:06:01.884Z,11.30
2018-10-19T08:08:30.124Z,11.40
2018-10-19T08:10:58.402Z,11.50
2018-10-19T08:13:26.610Z,11.60
2018-10-19T08:15:54.859Z,11.70
2018-10-19T08:18:23.107Z,11.70
2018-10-19T08:20:51.348Z,11.80
2018-10-19T08:23:19.576Z,12.20
2018-10-19T08:25:47.824Z,12.60
2018-10-19T08:28:16.044Z,13.20
2018-10-19T08:30:44.284Z,13.60
2018-10-19T08:33:12.529Z,14.00
2018-10-19T08:35:40.784Z,14.20
2018-10-19T08:38:09.021Z,14.40
2018-10-19T08:40:37.264Z,14.60
2018-10-19T08:43:06.129Z,14.80
2018-10-19T08:45:34.306Z,14.70
2018-10-19T08:48:02.536Z,14.80
2018-10-19T08:50:30.760Z,14.70
2018-10-19T08:52:59.036Z,14.70
2018-10-19T08:55:27.275Z,14.60
2018-10-19T08:57:55.594Z,14.50
2018-10-19T09:00:23.791Z,14.50
2018-10-19T09:02:52.026Z,14.20
2018-10-19T09:05:20.257Z,14.00
2018-10-19T09:07:48.489Z,14.10
2018-10-19T09:10:16.715Z,14.00
2018-10-19T09:12:45.053Z,13.80
2018-10-19T09:15:13.299Z,13.70
2018-10-19T09:17:41.475Z,13.80
2018-10-19T09:20:09.703Z,13.90
2018-10-19T09:22:37.944Z,13.80
2018-10-19T09:25:06.201Z,13.80
2018-10-19T09:27:34.451Z,13.70
2018-10-19T09:30:02.687Z,13.80
2018-10-19T09:32:30.945Z,13.80
2018-10-19T09:34:59.239Z,13.80
2018-10-19T09:37:27.445Z,13.80
2018-10-19T09:39:55.667Z,13.90
2018-10-19T09:42:23.902Z,14.10
2018-10-19T09:44:52.122Z,13.90
2018-10-19T09:47:20.374Z,13.90
2018-10-19T09:49:48.610Z,14.00
2018-10-19T09:52:16.880Z,14.20
2018-10-19T09:54:45.103Z,14.20
2018-10-19T09:57:13.474Z,14.30
2018-10-19T09:59:41.639Z,14.20
2018-10-19T10:02:09.959Z,14.10
2018-10-19T10:04:38.129Z,14.20
2018-10-19T10:07:06.431Z,14.20
2018-10-19T10:09:34.644Z,14.10
2018-10-19T10:12:02.880Z,14.30
2018-10-19T10:14:32.136Z,14.30
2018-10-19T10:17:00.384Z,14.40
2018-10-19T10:19:28.632Z,14.50
2018-10-19T10:21:56.875Z,14.50
2018-10-19T10:24:25.112Z,14.60
2018-10-19T10:26:53.361Z,14.60
2018-10-19T10:29:21.591Z,14.50
2018-10-19T10:31:49.848Z,14.30
2018-10-19T10:34:18.195Z,14.30
2018-10-19T10:36:46.312Z,14.30
2018-10-19T10:39:14.949Z,14.20
2018-10-19T10:41:43.045Z,14.30
2018-10-19T10:44:11.292Z,14.30
2018-10-19T10:46:39.524Z,14.20
2018-10-19T10:49:07.820Z,14.20
2018-10-19T10:51:36.060Z,14.20
2018-10-19T10:54:04.401Z,14.20
2018-10-19T10:56:32.661Z,14.10
2018-10-19T10:59:00.909Z,14.10
2018-10-19T11:01:29.127Z,14.20
2018-10-19T11:03:57.377Z,14.20
2018-10-19T11:06:25.647Z,14.40
2018-10-19T11:08:53.892Z,14.50
2018-10-19T11:11:22.122Z,14.60
2018-10-19T11:13:50.360Z,14.70
2018-10-19T11:16:18.580Z,14.70
2018-10-19T11:18:46.819Z,14.90
2018-10-19T11:21:15.045Z,14.90
2018-10-19T11:23:43.292Z,15.00
2018-10-19T11:26:11.507Z,14.80
2018-10-19T11:28:39.795Z,14.80
2018-10-19T11:31:08.078Z,14.80
2018-10-19T11:33:36.292Z,14.80
2018-10-19T11:36:04.521Z,14.70
2018-10-19T11:38:32.804Z,14.70
2018-10-19T11:41:01.024Z,14.70
2018-10-19T11:43:29.268Z,14.80
2018-10-19T11:45:57.524Z,14.90
2018-10-19T11:48:25.768Z,14.80
2018-10-19T11:50:54.000Z,14.80
2018-10-19T11:53:22.236Z,14.90
2018-10-19T11:55:50.463Z,14.90
2018-10-19T11:58:18.812Z,14.90
2018-10-19T12:00:46.963Z,15.00
2018-10-19T12:03:15.212Z,15.00
2018-10-19T12:05:43.434Z,14.90
2018-10-19T12:08:11.691Z,14.80
2018-10-19T12:10:40.035Z,14.80
2018-10-19T12:13:08.214Z,14.80
2018-10-19T12:15:36.426Z,14.70
2018-10-19T12:18:04.728Z,14.70
2018-10-19T12:20:32.963Z,14.70
2018-10-19T12:23:01.187Z,14.70
2018-10-19T12:25:29.431Z,14.70
2018-10-19T12:27:57.651Z,14.70
2018-10-19T12:30:25.899Z,14.60
2018-10-19T12:32:54.265Z,14.60
2018-10-19T12:35:22.565Z,14.60
2018-10-19T12:37:50.764Z,14.60
2018-10-19T12:40:18.995Z,14.70
2018-10-19T12:42:47.223Z,14.60
2018-10-19T12:46:35.204Z,14.70
2018-10-19T12:49:03.503Z,14.70
2018-10-19T12:51:31.681Z,14.80
2018-10-19T12:53:59.989Z,14.80
2018-10-19T12:56:28.203Z,14.80
2018-10-19T12:58:56.795Z,14.80
2018-10-19T13:01:26.367Z,14.90
2018-10-19T13:03:54.617Z,15.00
2018-10-19T13:06:22.857Z,15.00
2018-10-19T13:08:51.532Z,15.00
2018-10-19T13:11:19.763Z,15.10
2018-10-19T13:13:47.985Z,15.10
2018-10-19T13:16:16.275Z,15.10
2018-10-19T13:18:44.464Z,15.00
2018-10-19T13:21:12.780Z,14.80
2018-10-19T13:23:40.992Z,14.80
2018-10-19T13:26:09.236Z,14.80
2018-10-19T13:28:37.455Z,14.70
2018-10-19T13:31:05.824Z,14.70
2018-10-19T13:33:34.042Z,14.70
2018-10-19T13:36:02.312Z,14.60
2018-10-19T13:38:30.540Z,14.60
2018-10-19T13:40:58.787Z,14.60
2018-10-19T13:43:27.024Z,14.60
2018-10-19T13:45:55.304Z,14.50
2018-10-19T13:48:23.732Z,14.40
2018-10-19T13:50:51.965Z,14.30
2018-10-19T13:53:20.200Z,14.20
2018-10-19T13:55:48.452Z,14.20
2018-10-19T13:58:16.953Z,14.10
2018-10-19T14:00:45.216Z,14.00
2018-10-19T14:03:13.507Z,14.00
2018-10-19T14:05:41.992Z,14.00
2018-10-19T14:08:09.987Z,14.00
2018-10-19T14:10:38.248Z,14.00
2018-10-19T14:13:06.696Z,14.10
2018-10-19T14:15:34.939Z,14.10
2018-10-19T14:18:03.564Z,14.10
2018-10-19T14:20:31.843Z,14.10
2018-10-19T14:23:00.116Z,14.20
2018-10-19T14:25:28.332Z,14.20
2018-10-19T14:27:56.548Z,14.20
2018-10-19T14:30:24.796Z,14.20
2018-10-19T14:32:53.152Z,14.10
2018-10-19T14:35:21.381Z,14.10
2018-10-19T14:37:49.631Z,14.00
2018-10-19T14:40:19.184Z,14.10
2018-10-19T14:42:47.788Z,14.00
2018-10-19T14:45:16.669Z,14.00
2018-10-19T14:47:45.648Z,14.00
2018-10-19T14:50:15.156Z,13.90
2018-10-19T14:52:43.391Z,13.90
2018-10-19T14:55:13.451Z,13.90
2018-10-19T14:57:41.680Z,13.90
2018-10-19T15:00:12.092Z,13.80
2018-10-19T15:02:40.365Z,13.90
2018-10-19T15:05:09.803Z,13.90
2018-10-19T15:07:38.288Z,13.90
2018-10-19T15:10:08.792Z,13.80
2018-10-19T15:12:36.921Z,13.70
2018-10-19T15:15:05.501Z,13.70
2018-10-19T15:17:33.732Z,13.60
2018-10-19T15:20:02.132Z,13.60
2018-10-19T15:22:30.374Z,13.60
2018-10-19T15:24:58.840Z,13.60
2018-10-19T15:27:27.076Z,13.60
2018-10-19T15:29:55.326Z,13.50
2018-10-19T15:32:23.577Z,13.40
2018-10-19T15:34:51.830Z,13.30
2018-10-19T15:37:20.072Z,13.10
2018-10-19T15:39:48.299Z,13.00
2018-10-19T15:42:16.552Z,12.80
2018-10-19T15:44:44.837Z,12.70
2018-10-19T15:47:13.116Z,12.50
2018-10-19T15:49:41.400Z,12.30
2018-10-19T15:52:09.632Z,12.10
2018-10-19T15:54:37.892Z,12.00
2018-10-19T15:57:06.419Z,11.80
2018-10-19T15:59:34.668Z,11.70
2018-10-19T16:02:02.917Z,11.60
2018-10-19T16:04:31.157Z,11.60
2018-10-19T16:06:59.400Z,11.50
2018-10-19T16:09:27.626Z,11.50
2018-10-19T16:11:55.871Z,11.40
2018-10-19T16:14:24.108Z,11.30
2018-10-19T16:16:52.344Z,11.20
2018-10-19T16:19:20.685Z,11.10
2018-10-19T16:21:48.920Z,11.00
2018-10-19T16:24:17.156Z,10.80
2018-10-19T16:26:45.409Z,10.70
2018-10-19T16:29:13.627Z,10.60
2018-10-19T16:31:41.873Z,10.50
2018-10-19T16:34:10.104Z,10.40
2018-10-19T16:36:38.347Z,10.30
2018-10-19T16:39:07.278Z,10.20
2018-10-19T16:41:35.520Z,10.10
2018-10-19T16:44:03.775Z,10.00
2018-10-19T16:46:31.996Z,9.90
2018-10-19T16:49:00.243Z,9.80
2018-10-19T16:51:28.444Z,9.60
2018-10-19T16:53:56.725Z,9.50
2018-10-19T16:56:24.924Z,9.40
2018-10-19T16:58:53.149Z,9.30
2018-10-19T17:01:21.407Z,9.10
2018-10-19T17:03:49.828Z,9.00
2018-10-19T17:06:18.095Z,8.90
2018-10-19T17:08:46.328Z,8.80
2018-10-19T17:11:14.556Z,8.80
2018-10-19T17:13:42.804Z,8.70
2018-10-19T17:16:11.020Z,8.60
2018-10-19T17:18:39.244Z,8.50
2018-10-19T17:21:07.519Z,8.50
2018-10-19T17:23:35.733Z,8.40
2018-10-19T17:26:04.004Z,8.40
2018-10-19T17:28:32.319Z,8.40
2018-10-19T17:31:00.657Z,8.30
2018-10-19T17:33:28.954Z,8.30
2018-10-19T17:35:57.072Z,8.30
2018-10-19T17:38:25.329Z,8.20
2018-10-19T17:40:53.551Z,8.20
2018-10-19T17:43:21.933Z,8.10
2018-10-19T17:45:50.110Z,8.10
2018-10-19T17:48:18.470Z,8.00
2018-10-19T17:50:46.598Z,8.00
2018-10-19T17:53:14.897Z,7.90
2018-10-19T17:55:43.057Z,7.90
2018-10-19T17:58:11.300Z,7.90
2018-10-19T18:00:39.575Z,7.80
2018-10-19T18:03:07.847Z,7.80
2018-10-19T18:05:36.036Z,7.80
2018-10-19T18:08:04.304Z,7.70
2018-10-19T18:10:32.524Z,7.60
2018-10-19T18:13:00.764Z,7.60
2018-10-19T18:15:29.035Z,7.50
2018-10-19T18:17:57.249Z,7.40
2018-10-19T18:20:25.444Z,7.40
2018-10-19T18:22:53.745Z,7.40
2018-10-19T18:25:21.936Z,7.30
2018-10-19T18:27:50.181Z,7.30
2018-10-19T18:30:18.400Z,7.20
2018-10-19T18:32:46.712Z,7.20
2018-10-19T18:35:14.928Z,7.10
2018-10-19T18:37:43.161Z,7.00
2018-10-19T18:40:12.142Z,7.00
2018-10-19T18:42:40.358Z,7.00
2018-10-19T18:45:09.303Z,6.90
2018-10-19T18:47:37.860Z,6.80
2018-10-19T18:50:06.668Z,6.70
2018-10-19T18:52:34.848Z,6.70
2018-10-19T18:55:03.107Z,6.60
2018-10-19T18:57:31.320Z,6.50
2018-10-19T18:59:59.560Z,6.50
2018-10-19T19:02:27.783Z,6.40
2018-10-19T19:04:56.331Z,6.30
2018-10-19T19:07:24.617Z,6.30
2018-10-19T19:09:58.339Z,6.20
2018-10-19T19:12:26.559Z,6.10
2018-10-19T19:14:54.793Z,6.10
2018-10-19T19:17:23.008Z,6.10
2018-10-19T19:19:56.638Z,6.00
2018-10-19T19:22:24.816Z,6.00
2018-10-19T19:24:58.416Z,5.90
2018-10-19T19:27:26.632Z,5.90
2018-10-19T19:29:54.869Z,5.80
2018-10-19T19:32:23.076Z,5.80
2018-10-19T19:34:51.311Z,5.70
2018-10-19T19:37:19.537Z,5.70
2018-10-19T19:39:47.782Z,5.70
2018-10-19T19:42:21.469Z,5.60
2018-10-19T19:44:49.715Z,5.60
2018-10-19T19:48:22.290Z,5.50
2018-10-19T19:50:50.526Z,5.50
2018-10-19T19:53:18.735Z,5.40
2018-10-19T19:55:46.979Z,5.40
2018-10-19T19:58:15.224Z,5.30
2018-10-19T20:00:43.455Z,5.30
2018-10-19T20:03:11.695Z,5.30
2018-10-19T20:05:39.925Z,5.20
2018-10-19T20:08:08.215Z,5.20
2018-10-19T20:10:36.408Z,5.10
2018-10-19T20:13:04.847Z,5.10
2018-10-19T20:15:33.088Z,5.10
2018-10-19T20:18:01.308Z,5.10
2018-10-19T20:20:29.558Z,5.00
2018-10-19T20:22:57.818Z,5.00
2018-10-19T20:25:26.059Z,4.90
2018-10-19T20:27:54.294Z,4.90
2018-10-19T20:30:22.532Z,4.90
2018-10-19T20:32:50.776Z,4.80
2018-10-19T20:35:19.244Z,4.80
2018-10-19T20:37:47.479Z,4.80
2018-10-19T20:40:15.728Z,4.80
2018-10-19T20:42:43.957Z,4.80
2018-10-19T20:45:12.199Z,4.70
2018-10-19T20:47:40.424Z,4.70
2018-10-19T20:50:08.697Z,4.70
2018-10-19T20:52:36.892Z,4.70
2018-10-19T20:55:05.739Z,4.60
2018-10-19T20:57:33.939Z,4.60
2018-10-19T21:00:02.177Z,4.60
2018-10-19T21:02:30.395Z,4.50
2018-10-19T21:04:58.645Z,4.50
2018-10-19T21:07:26.909Z,4.40
2018-10-19T21:09:55.104Z,4.40
2018-10-19T21:12:23.344Z,4.30
2018-10-19T21:14:51.564Z,4.30
2018-10-19T21:17:19.794Z,4.30
2018-10-19T21:19:48.020Z,4.30
2018-10-19T21:22:16.262Z,4.30
2018-10-19T21:24:44.530Z,4.20
2018-10-19T21:27:12.799Z,4.20
2018-10-19T21:29:41.055Z,4.20
2018-10-19T21:32:09.535Z,4.10
2018-10-19T21:34:37.793Z,4.10
2018-10-19T21:37:06.036Z,4.00
2018-10-19T21:39:34.299Z,3.90
2018-10-19T21:42:02.539Z,3.90
2018-10-19T21:44:30.769Z,3.90
2018-10-19T21:46:59.023Z,3.80
2018-10-19T21:49:27.260Z,3.80
2018-10-19T21:51:55.503Z,3.80
2018-10-19T21:54:23.734Z,3.70
2018-10-19T21:56:51.968Z,3.70
2018-10-19T21:59:20.195Z,3.70
2018-10-19T22:01:48.500Z,3.60
2018-10-19T22:04:16.734Z,3.50
2018-10-19T22:06:44.979Z,3.50
2018-10-19T22:09:13.759Z,3.50
2018-10-19T22:11:42.362Z,3.50
2018-10-19T22:14:10.942Z,3.50
2018-10-19T22:16:39.931Z,3.50
2018-10-19T22:19:09.133Z,3.40
2018-10-19T22:21:37.331Z,3.50
2018-10-19T22:24:06.364Z,3.40
2018-10-19T22:26:34.604Z,3.30
2018-10-19T22:29:02.827Z,3.40
2018-10-19T22:31:31.124Z,3.30
2018-10-19T22:33:59.336Z,3.40
2018-10-19T22:36:27.580Z,3.30
2018-10-19T22:38:55.808Z,3.30
2018-10-19T22:41:24.063Z,3.20
2018-10-19T22:43:52.284Z,3.30
